createdAt,value
2023-11-02T00:00:10.699Z,98971.44
2023-11-02T00:02:39.761Z,98968.59
2023-11-02T00:06:11.129Z,98975.16
2023-11-02T00:08:40.035Z,98981.34
2023-11-02T00:11:56.015Z,98969.47
2023-11-02T00:14:37.037Z,98965.81
2023-11-02T00:17:37.250Z,98961.41
2023-11-02T00:20:12.595Z,98956.53
2023-11-02T00:22:46.655Z,98968.50
2023-11-02T00:25:56.543Z,98963.22
2023-11-02T00:28:26.403Z,98956.34
2023-11-02T00:30:54.569Z,98960.63
2023-11-02T00:33:23.929Z,98951.69
2023-11-02T00:35:55.170Z,98961.63
2023-11-02T00:38:28.176Z,98962.63
2023-11-02T00:40:59.562Z,98963.38
2023-11-02T00:43:30.651Z,98953.25
2023-11-02T00:45:59.707Z,98949.53
2023-11-02T00:48:34.662Z,98955.06
2023-11-02T00:51:21.961Z,98945.63
2023-11-02T00:53:56.848Z,98949.81
2023-11-02T00:56:33.168Z,98946.47
2023-11-02T00:59:02.061Z,98938.34
2023-11-02T01:01:30.831Z,98949.81
2023-11-02T01:04:55.692Z,98942.66
2023-11-02T01:07:23.710Z,98934.56
2023-11-02T01:10:01.841Z,98939.22
2023-11-02T01:12:38.233Z,98932.25
2023-11-02T01:15:45.488Z,98926.31
2023-11-02T01:18:16.534Z,98922.13
2023-11-02T01:21:06.040Z,98921.41
2023-11-02T01:23:37.556Z,98927.31
2023-11-02T01:26:06.545Z,98927.41
2023-11-02T01:28:53.460Z,98931.13
2023-11-02T01:31:23.716Z,98932.25
2023-11-02T01:34:01.770Z,98929.16
2023-11-02T01:36:35.393Z,98920.53
2023-11-02T01:39:16.674Z,98926.19
2023-11-02T01:42:10.133Z,98926.19
2023-11-02T01:45:07.979Z,98921.19
2023-11-02T01:48:08.409Z,98905.25
2023-11-02T01:51:08.421Z,98916.91
2023-11-02T01:54:17.525Z,98906.22
2023-11-02T01:57:01.843Z,98895.06
2023-11-02T01:59:49.664Z,98897.34
2023-11-02T02:03:20.991Z,98899.28
2023-11-02T02:06:20.750Z,98907.22
2023-11-02T02:09:30.150Z,98909.00
2023-11-02T02:12:22.285Z,98905.84
2023-11-02T02:15:57.150Z,98907.66
2023-11-02T02:18:49.352Z,98902.22
2023-11-02T02:21:35.698Z,98901.00
2023-11-02T02:25:04.712Z,98892.41
2023-11-02T02:27:57.242Z,98882.44
2023-11-02T02:30:34.678Z,98881.41
2023-11-02T02:34:06.156Z,98872.31
2023-11-02T02:36:46.682Z,98880.34
2023-11-02T02:39:24.248Z,98869.75
2023-11-02T02:42:02.617Z,98879.41
2023-11-02T02:44:33.359Z,98874.56
2023-11-02T02:47:04.968Z,98877.50
2023-11-02T02:49:41.556Z,98871.88
2023-11-02T02:52:15.208Z,98868.94
2023-11-02T02:54:51.532Z,98869.31
2023-11-02T02:57:21.295Z,98864.69
2023-11-02T02:59:55.455Z,98866.41
2023-11-02T03:02:31.218Z,98859.91
2023-11-02T03:05:01.326Z,98858.34
2023-11-02T03:07:33.812Z,98861.47
2023-11-02T03:10:07.878Z,98862.41
2023-11-02T03:12:42.977Z,98855.66
2023-11-02T03:15:14.367Z,98860.69
2023-11-02T03:18:00.582Z,98860.50
2023-11-02T03:20:28.951Z,98864.50
2023-11-02T03:23:13.747Z,98859.63
2023-11-02T03:26:08.933Z,98863.41
2023-11-02T03:29:36.334Z,98855.16
2023-11-02T03:32:19.186Z,98853.47
2023-11-02T03:35:12.101Z,98843.16
2023-11-02T03:38:22.075Z,98834.72
2023-11-02T03:41:21.710Z,98834.50
2023-11-02T03:44:32.155Z,98831.31
2023-11-02T03:47:30.099Z,98831.97
2023-11-02T03:50:12.341Z,98828.56
2023-11-02T03:53:24.672Z,98827.59
2023-11-02T03:56:23.105Z,98828.84
2023-11-02T03:59:30.277Z,98827.91
2023-11-02T04:02:11.073Z,98829.53
2023-11-02T04:04:48.616Z,98827.66
2023-11-02T04:07:24.295Z,98826.63
2023-11-02T04:10:13.459Z,98831.84
2023-11-02T04:13:15.348Z,98822.84
2023-11-02T04:15:44.638Z,98814.91
2023-11-02T04:18:14.634Z,98824.34
2023-11-02T04:20:44.986Z,98822.72
2023-11-02T04:23:15.997Z,98818.38
2023-11-02T04:25:43.813Z,98816.28
2023-11-02T04:28:12.568Z,98823.13
2023-11-02T04:30:41.918Z,98820.34
2023-11-02T04:33:10.697Z,98816.94
2023-11-02T04:35:38.620Z,98819.47
2023-11-02T04:38:10.346Z,98820.25
2023-11-02T04:40:42.888Z,98814.66
2023-11-02T04:43:12.636Z,98806.22
2023-11-02T04:45:44.766Z,98801.03
2023-11-02T04:48:16.196Z,98800.06
2023-11-02T04:50:46.497Z,98790.59
2023-11-02T04:53:16.132Z,98787.38
2023-11-02T04:55:44.948Z,98791.81
2023-11-02T04:58:12.777Z,98790.75
2023-11-02T05:00:40.630Z,98792.03
2023-11-02T05:03:09.620Z,98792.47
2023-11-02T05:05:38.407Z,98789.94
2023-11-02T05:08:10.175Z,98799.72
2023-11-02T05:10:39.146Z,98792.16
2023-11-02T05:13:07.840Z,98784.69
2023-11-02T05:15:37.584Z,98793.03
2023-11-02T05:18:23.432Z,98786.34
2023-11-02T05:20:59.205Z,98802.50
2023-11-02T05:23:27.484Z,98798.06
2023-11-02T05:25:56.285Z,98785.28
2023-11-02T05:28:24.213Z,98787.63
2023-11-02T05:30:52.090Z,98779.72
2023-11-02T05:33:20.097Z,98772.19
2023-11-02T05:35:48.309Z,98773.84
2023-11-02T05:38:17.569Z,98777.59
2023-11-02T05:40:46.848Z,98782.00
2023-11-02T05:43:15.890Z,98784.75
2023-11-02T05:45:44.785Z,98784.78
2023-11-02T05:48:12.720Z,98787.66
2023-11-02T05:50:40.984Z,98782.19
2023-11-02T05:53:08.825Z,98790.50
2023-11-02T05:55:36.812Z,98795.38
2023-11-02T05:58:04.651Z,98786.03
2023-11-02T06:00:33.510Z,98795.06
2023-11-02T06:03:02.381Z,98789.34
2023-11-02T06:05:31.440Z,98785.59
2023-11-02T06:08:00.947Z,98788.75
2023-11-02T06:10:29.749Z,98791.44
2023-11-02T06:12:58.710Z,98802.97
2023-11-02T06:15:28.018Z,98802.75
2023-11-02T06:17:57.669Z,98801.34
2023-11-02T06:20:26.642Z,98786.59
2023-11-02T06:22:56.301Z,98778.22
2023-11-02T06:25:26.282Z,98779.72
2023-11-02T06:27:54.438Z,98790.34
2023-11-02T06:30:23.197Z,98774.63
2023-11-02T06:32:53.080Z,98771.84
2023-11-02T06:35:21.962Z,98776.81
2023-11-02T06:38:01.634Z,98770.59
2023-11-02T06:40:31.432Z,98761.69
2023-11-02T06:43:01.135Z,98743.16
2023-11-02T06:45:29.916Z,98742.75
2023-11-02T06:47:58.654Z,98752.78
2023-11-02T06:50:26.595Z,98763.47
2023-11-02T06:52:56.373Z,98741.97
2023-11-02T06:55:25.108Z,98748.63
2023-11-02T06:57:53.846Z,98751.13
2023-11-02T07:00:24.489Z,98747.41
2023-11-02T07:02:53.536Z,98748.00
2023-11-02T07:05:22.256Z,98755.06
2023-11-02T07:07:51.451Z,98755.50
2023-11-02T07:10:20.943Z,98758.69
2023-11-02T07:12:49.660Z,98753.84
2023-11-02T07:15:17.531Z,98745.97
2023-11-02T07:17:45.508Z,98729.41
2023-11-02T07:20:13.443Z,98745.47
2023-11-02T07:22:42.246Z,98741.13
2023-11-02T07:25:12.247Z,98738.56
2023-11-02T07:27:41.112Z,98740.56
2023-11-02T07:30:12.623Z,98733.03
2023-11-02T07:32:41.585Z,98730.66
2023-11-02T07:35:11.622Z,98727.72
2023-11-02T07:37:40.403Z,98721.91
2023-11-02T07:40:10.250Z,98726.09
2023-11-02T07:42:39.261Z,98723.84
2023-11-02T07:45:07.961Z,98723.28
2023-11-02T07:47:36.808Z,98720.50
2023-11-02T07:50:05.660Z,98724.78
2023-11-02T07:52:34.415Z,98722.91
2023-11-02T07:55:04.912Z,98729.50
2023-11-02T07:57:32.823Z,98720.94
2023-11-02T08:00:02.157Z,98726.16
2023-11-02T08:02:30.984Z,98733.41
2023-11-02T08:04:58.817Z,98731.97
2023-11-02T08:07:27.498Z,98725.38
2023-11-02T08:09:56.295Z,98724.03
2023-11-02T08:12:24.147Z,98718.63
2023-11-02T08:14:51.994Z,98719.59
2023-11-02T08:17:22.816Z,98715.66
2023-11-02T08:19:50.710Z,98718.72
2023-11-02T08:22:18.604Z,98707.81
2023-11-02T08:24:47.369Z,98710.47
2023-11-02T08:27:17.143Z,98707.53
2023-11-02T08:29:46.693Z,98697.19
2023-11-02T08:32:15.473Z,98700.91
2023-11-02T08:34:44.511Z,98695.03
2023-11-02T08:37:13.534Z,98685.31
2023-11-02T08:39:42.504Z,98678.81
2023-11-02T08:42:10.559Z,98672.44
2023-11-02T08:44:45.213Z,98669.25
2023-11-02T08:47:14.921Z,98676.31
2023-11-02T08:49:45.167Z,98675.69
2023-11-02T08:52:13.887Z,98675.66
2023-11-02T08:54:41.690Z,98669.31
2023-11-02T08:57:10.451Z,98665.16
2023-11-02T08:59:39.178Z,98657.25
2023-11-02T09:02:07.479Z,98651.72
2023-11-02T09:04:35.378Z,98656.84
2023-11-02T09:07:04.221Z,98656.81
2023-11-02T09:09:32.101Z,98651.03
2023-11-02T09:12:01.244Z,98644.13
2023-11-02T09:14:29.758Z,98642.94
2023-11-02T09:16:59.195Z,98643.13
2023-11-02T09:19:27.070Z,98636.84
2023-11-02T09:21:55.702Z,98643.69
2023-11-02T09:24:23.781Z,98630.63
2023-11-02T09:26:52.676Z,98636.44
2023-11-02T09:29:21.307Z,98629.34
2023-11-02T09:31:59.328Z,98627.75
2023-11-02T09:34:32.582Z,98630.31
2023-11-02T09:37:02.563Z,98626.34
2023-11-02T09:39:31.689Z,98613.00
2023-11-02T09:41:59.659Z,98617.22
2023-11-02T09:44:30.426Z,98611.53
2023-11-02T09:46:58.238Z,98612.72
2023-11-02T09:49:27.154Z,98604.91
2023-11-02T09:51:57.035Z,98608.59
2023-11-02T09:54:34.209Z,98596.09
2023-11-02T09:57:11.751Z,98589.38
2023-11-02T09:59:47.650Z,98591.97
2023-11-02T10:02:21.147Z,98585.88
2023-11-02T10:04:50.934Z,98577.75
2023-11-02T10:07:19.828Z,98574.94
2023-11-02T10:09:51.351Z,98570.97
2023-11-02T10:12:20.857Z,98568.09
2023-11-02T10:14:48.772Z,98560.28
2023-11-02T10:17:18.580Z,98544.19
2023-11-02T10:19:47.339Z,98544.34
2023-11-02T10:22:18.287Z,98533.50
2023-11-02T10:24:48.310Z,98529.13
2023-11-02T10:27:17.829Z,98521.38
2023-11-02T10:29:46.997Z,98521.06
2023-11-02T10:32:14.857Z,98511.31
2023-11-02T10:34:45.516Z,98516.38
2023-11-02T10:37:17.320Z,98503.38
2023-11-02T10:39:46.835Z,98506.16
2023-11-02T10:42:16.717Z,98500.25
2023-11-02T10:44:45.872Z,98499.81
2023-11-02T10:47:16.552Z,98504.63
2023-11-02T10:49:46.643Z,98502.75
2023-11-02T10:52:40.312Z,98509.06
2023-11-02T10:55:38.716Z,98501.00
2023-11-02T10:58:10.202Z,98491.94
2023-11-02T11:00:39.643Z,98494.81
2023-11-02T11:03:11.197Z,98496.00
2023-11-02T11:05:41.273Z,98486.03
2023-11-02T11:08:12.108Z,98491.88
2023-11-02T11:10:41.979Z,98480.38
2023-11-02T11:13:12.381Z,98482.22
2023-11-02T11:15:42.438Z,98483.59
2023-11-02T11:18:13.058Z,98472.78
2023-11-02T11:20:45.336Z,98463.03
2023-11-02T11:23:16.172Z,98457.88
2023-11-02T11:26:02.113Z,98457.38
2023-11-02T11:28:37.267Z,98451.63
2023-11-02T11:31:07.206Z,98447.16
2023-11-02T11:33:46.169Z,98445.75
2023-11-02T11:36:25.445Z,98442.78
2023-11-02T11:38:58.818Z,98434.75
2023-11-02T11:41:52.914Z,98435.16
2023-11-02T11:44:24.475Z,98424.84
2023-11-02T11:46:59.979Z,98413.09
2023-11-02T11:49:39.566Z,98413.28
2023-11-02T11:52:25.787Z,98406.31
2023-11-02T11:55:01.402Z,98395.81
2023-11-02T11:57:58.660Z,98395.63
2023-11-02T12:00:32.030Z,98388.50
2023-11-02T12:03:07.567Z,98367.31
2023-11-02T12:05:44.504Z,98367.91
2023-11-02T12:08:13.748Z,98369.16
2023-11-02T12:10:55.691Z,98369.34
2023-11-02T12:13:26.806Z,98362.16
2023-11-02T12:16:04.833Z,98361.53
2023-11-02T12:18:38.534Z,98355.72
2023-11-02T12:21:21.171Z,98342.84
2023-11-02T12:23:51.802Z,98338.13
2023-11-02T12:26:27.350Z,98326.78
2023-11-02T12:28:58.459Z,98315.91
2023-11-02T12:31:44.630Z,98310.16
2023-11-02T12:34:14.132Z,98299.66
2023-11-02T12:36:45.015Z,98298.22
2023-11-02T12:39:19.288Z,98299.47
2023-11-02T12:41:49.224Z,98292.63
2023-11-02T12:44:23.417Z,98289.59
2023-11-02T12:47:08.126Z,98285.34
2023-11-02T12:49:36.359Z,98282.78
2023-11-02T12:52:10.942Z,98277.13
2023-11-02T12:54:39.098Z,98269.31
2023-11-02T12:57:10.852Z,98271.50
2023-11-02T12:59:45.164Z,98282.03
2023-11-02T13:02:26.308Z,98280.44
2023-11-02T13:05:01.429Z,98274.25
2023-11-02T13:07:36.594Z,98263.72
2023-11-02T13:10:14.381Z,98273.41
2023-11-02T13:12:45.257Z,98284.84
2023-11-02T13:15:16.645Z,98281.44
2023-11-02T13:17:47.203Z,98272.13
2023-11-02T13:20:20.576Z,98275.69
2023-11-02T13:22:52.091Z,98274.25
2023-11-02T13:25:22.703Z,98262.63
2023-11-02T13:27:50.850Z,98256.75
2023-11-02T13:30:20.262Z,98259.53
2023-11-02T13:32:48.283Z,98249.19
2023-11-02T13:35:19.081Z,98245.94
2023-11-02T13:37:49.053Z,98242.06
2023-11-02T13:40:27.852Z,98227.97
2023-11-02T13:42:57.788Z,98211.53
2023-11-02T13:45:26.630Z,98212.72
2023-11-02T13:47:56.362Z,98216.13
2023-11-02T13:50:28.635Z,98203.63
2023-11-02T13:52:57.284Z,98194.94
2023-11-02T13:55:27.964Z,98195.94
2023-11-02T13:57:59.626Z,98200.03
2023-11-02T14:00:29.196Z,98208.75
2023-11-02T14:02:58.928Z,98201.25
2023-11-02T14:05:27.926Z,98196.72
2023-11-02T14:07:56.686Z,98198.06
2023-11-02T14:10:28.635Z,98196.78
2023-11-02T14:12:59.346Z,98197.13
2023-11-02T14:15:28.759Z,98195.28
2023-11-02T14:17:58.324Z,98189.41
2023-11-02T14:20:27.911Z,98187.38
2023-11-02T14:22:57.550Z,98179.91
2023-11-02T14:25:27.226Z,98179.22
2023-11-02T14:27:56.033Z,98175.16
2023-11-02T14:30:26.403Z,98172.78
2023-11-02T14:32:56.516Z,98167.53
2023-11-02T14:35:26.398Z,98155.50
2023-11-02T14:37:58.516Z,98148.75
2023-11-02T14:40:29.571Z,98148.91
2023-11-02T14:42:58.964Z,98141.28
2023-11-02T14:45:45.253Z,98148.56
2023-11-02T14:48:17.020Z,98138.25
2023-11-02T14:50:45.331Z,98137.72
2023-11-02T14:53:13.391Z,98133.81
2023-11-02T14:55:42.956Z,98131.47
2023-11-02T14:58:12.596Z,98131.66
2023-11-02T15:00:42.908Z,98133.84
2023-11-02T15:03:12.690Z,98125.88
2023-11-02T15:05:40.685Z,98126.19
2023-11-02T15:08:11.365Z,98121.25
2023-11-02T15:10:41.944Z,98120.94
2023-11-02T15:13:14.927Z,98138.47
2023-11-02T15:15:44.810Z,98142.34
2023-11-02T15:18:15.768Z,98139.59
2023-11-02T15:20:50.997Z,98136.03
2023-11-02T15:23:24.019Z,98132.03
2023-11-02T15:25:53.000Z,98135.59
2023-11-02T15:28:24.251Z,98143.06
2023-11-02T15:30:54.910Z,98136.72
2023-11-02T15:33:24.715Z,98140.72
2023-11-02T15:35:54.716Z,98138.53
2023-11-02T15:38:24.449Z,98134.06
2023-11-02T15:40:55.277Z,98129.34
2023-11-02T15:43:23.466Z,98130.81
2023-11-02T15:45:52.592Z,98142.66
2023-11-02T15:48:21.843Z,98146.28
2023-11-02T15:50:54.060Z,98138.13
2023-11-02T15:53:24.313Z,98125.91
2023-11-02T15:55:54.240Z,98119.66
2023-11-02T15:58:23.903Z,98119.91
2023-11-02T16:00:52.807Z,98125.91
2023-11-02T16:03:21.566Z,98126.66
2023-11-02T16:05:50.526Z,98126.50
2023-11-02T16:08:20.104Z,98125.66
2023-11-02T16:10:48.931Z,98128.34
2023-11-02T16:13:17.885Z,98131.25
2023-11-02T16:15:47.440Z,98135.75
2023-11-02T16:18:18.657Z,98137.84
2023-11-02T16:20:48.442Z,98136.19
2023-11-02T16:23:19.336Z,98136.31
2023-11-02T16:25:48.954Z,98136.81
2023-11-02T16:28:18.671Z,98141.50
2023-11-02T16:30:47.446Z,98132.03
2023-11-02T16:33:16.617Z,98145.81
2023-11-02T16:35:46.185Z,98135.03
2023-11-02T16:38:16.564Z,98144.34
2023-11-02T16:40:47.309Z,98140.03
2023-11-02T16:43:16.902Z,98142.53
2023-11-02T16:45:48.174Z,98139.44
2023-11-02T16:48:17.781Z,98131.91
2023-11-02T16:50:47.745Z,98126.88
2023-11-02T16:53:16.642Z,98130.56
2023-11-02T16:55:45.411Z,98127.19
2023-11-02T16:58:14.285Z,98124.44
2023-11-02T17:00:43.756Z,98119.84
2023-11-02T17:03:12.514Z,98125.59
2023-11-02T17:05:42.969Z,98123.69
2023-11-02T17:08:12.061Z,98124.72
2023-11-02T17:10:41.586Z,98115.38
2023-11-02T17:13:10.758Z,98112.63
2023-11-02T17:15:39.842Z,98106.28
2023-11-02T17:18:09.045Z,98104.13
2023-11-02T17:20:42.468Z,98095.94
2023-11-02T17:23:12.126Z,98091.78
2023-11-02T17:25:41.246Z,98085.13
2023-11-02T17:28:10.084Z,98084.53
2023-11-02T17:30:40.383Z,98079.59
2023-11-02T17:33:09.699Z,98070.94
2023-11-02T17:35:38.934Z,98068.25
2023-11-02T17:38:08.784Z,98059.75
2023-11-02T17:40:40.100Z,98053.56
2023-11-02T17:43:08.976Z,98068.25
2023-11-02T17:45:40.603Z,98053.50
2023-11-02T17:48:13.528Z,98048.91
2023-11-02T17:50:44.332Z,98034.66
2023-11-02T17:53:13.587Z,98050.38
2023-11-02T17:55:47.075Z,98037.47
2023-11-02T17:58:17.133Z,98030.63
2023-11-02T18:00:48.912Z,98021.38
2023-11-02T18:03:23.201Z,98016.63
2023-11-02T18:05:52.889Z,98016.75
2023-11-02T18:08:22.298Z,98020.00
2023-11-02T18:10:52.289Z,98014.06
2023-11-02T18:13:21.790Z,98018.06
2023-11-02T18:15:56.104Z,98018.31
2023-11-02T18:18:26.439Z,98010.97
2023-11-02T18:20:55.272Z,98013.06
2023-11-02T18:23:25.103Z,98014.97
2023-11-02T18:25:55.259Z,97997.88
2023-11-02T18:28:24.006Z,98002.25
2023-11-02T18:30:54.197Z,97997.66
2023-11-02T18:33:24.087Z,97991.47
2023-11-02T18:35:53.976Z,97996.03
2023-11-02T18:38:27.075Z,97989.91
2023-11-02T18:40:55.888Z,97990.72
2023-11-02T18:43:25.500Z,97993.22
2023-11-02T18:45:54.310Z,97977.84
2023-11-02T18:48:25.394Z,97979.59
2023-11-02T18:50:56.530Z,97976.66
2023-11-02T18:53:26.294Z,97987.16
2023-11-02T18:55:56.511Z,97985.34
2023-11-02T18:58:25.052Z,97983.44
2023-11-02T19:00:54.133Z,97972.34
2023-11-02T19:03:23.743Z,97972.66
2023-11-02T19:05:53.062Z,97956.19
2023-11-02T19:08:27.987Z,97961.22
2023-11-02T19:11:04.509Z,97957.09
2023-11-02T19:13:33.664Z,97957.72
2023-11-02T19:16:22.036Z,97968.22
2023-11-02T19:18:51.268Z,97961.94
2023-11-02T19:21:24.489Z,97965.56
2023-11-02T19:23:54.357Z,97959.19
2023-11-02T19:26:23.124Z,97958.22
2023-11-02T19:28:58.439Z,97955.22
2023-11-02T19:31:33.295Z,97947.97
2023-11-02T19:34:02.234Z,97954.13
2023-11-02T19:36:31.378Z,97946.97
2023-11-02T19:39:04.446Z,97948.50
2023-11-02T19:41:39.338Z,97941.28
2023-11-02T19:44:09.652Z,97935.94
2023-11-02T19:46:45.266Z,97931.66
2023-11-02T19:49:15.105Z,97926.78
2023-11-02T19:51:44.840Z,97922.63
2023-11-02T19:54:15.183Z,97923.56
2023-11-02T19:56:50.723Z,97918.69
2023-11-02T19:59:22.993Z,97922.28
2023-11-02T20:01:53.300Z,97912.09
2023-11-02T20:04:22.278Z,97912.13
2023-11-02T20:06:59.036Z,97903.16
2023-11-02T20:09:30.775Z,97903.16
2023-11-02T20:11:59.013Z,97897.44
2023-11-02T20:14:27.058Z,97896.28
2023-11-02T20:16:55.942Z,97887.81
2023-11-02T20:19:26.122Z,97883.66
2023-11-02T20:21:55.246Z,97880.28
2023-11-02T20:24:26.117Z,97874.28
2023-11-02T20:26:55.438Z,97872.50
2023-11-02T20:29:25.565Z,97860.00
2023-11-02T20:31:54.699Z,97856.69
2023-11-02T20:34:23.642Z,97852.38
2023-11-02T20:36:53.813Z,97839.59
2023-11-02T20:39:24.055Z,97846.56
2023-11-02T20:41:56.097Z,97841.88
2023-11-02T20:44:26.968Z,97836.97
2023-11-02T20:46:56.600Z,97834.34
2023-11-02T20:49:27.937Z,97833.13
2023-11-02T20:51:57.625Z,97827.59
2023-11-02T20:54:26.652Z,97827.75
2023-11-02T20:56:55.395Z,97813.66
2023-11-02T20:59:26.450Z,97809.97
2023-11-02T21:01:56.619Z,97805.44
2023-11-02T21:04:26.061Z,97808.56
2023-11-02T21:07:00.256Z,97815.28
2023-11-02T21:09:31.173Z,97801.63
2023-11-02T21:12:00.633Z,97801.94
2023-11-02T21:14:29.837Z,97798.28
2023-11-02T21:16:58.744Z,97789.97
2023-11-02T21:19:31.190Z,97786.00
2023-11-02T21:21:59.988Z,97784.47
2023-11-02T21:24:28.680Z,97783.59
2023-11-02T21:26:56.844Z,97791.69
2023-11-02T21:29:24.925Z,97788.28
2023-11-02T21:31:53.715Z,97794.47
2023-11-02T21:34:23.272Z,97790.56
2023-11-02T21:36:52.018Z,97786.03
2023-11-02T21:39:21.323Z,97784.81
2023-11-02T21:41:52.295Z,97787.88
2023-11-02T21:44:21.751Z,97793.03
2023-11-02T21:46:50.813Z,97788.16
2023-11-02T21:49:19.743Z,97786.13
2023-11-02T21:51:48.571Z,97777.19
2023-11-02T21:54:18.570Z,97769.78
2023-11-02T21:56:49.159Z,97754.16
2023-11-02T21:59:20.481Z,97747.78
2023-11-02T22:01:49.417Z,97739.97
2023-11-02T22:04:20.481Z,97734.66
2023-11-02T22:06:49.744Z,97731.94
2023-11-02T22:09:18.849Z,97739.09
2023-11-02T22:11:48.951Z,97743.56
2023-11-02T22:14:18.326Z,97739.47
2023-11-02T22:16:53.583Z,97737.34
2023-11-02T22:19:22.785Z,97723.09
2023-11-02T22:21:51.859Z,97723.09
2023-11-02T22:24:20.681Z,97731.69
2023-11-02T22:26:49.057Z,97737.63
2023-11-02T22:29:17.113Z,97714.53
2023-11-02T22:31:45.856Z,97708.69
2023-11-02T22:34:14.715Z,97707.78
2023-11-02T22:36:44.348Z,97704.69
2023-11-02T22:39:12.817Z,97715.66
2023-11-02T22:41:46.819Z,97708.94
2023-11-02T22:44:14.901Z,97712.50
2023-11-02T22:46:43.566Z,97717.47
2023-11-02T22:49:12.645Z,97735.47
2023-11-02T22:51:43.370Z,97736.47
2023-11-02T22:54:11.702Z,97732.91
2023-11-02T22:56:39.665Z,97747.53
2023-11-02T22:59:09.020Z,97755.81
2023-11-02T23:01:36.856Z,97751.72
2023-11-02T23:04:06.517Z,97731.25
2023-11-02T23:06:34.926Z,97725.94
2023-11-02T23:09:03.182Z,97728.69
2023-11-02T23:11:33.361Z,97720.63
2023-11-02T23:14:03.894Z,97709.47
2023-11-02T23:16:39.277Z,97716.00
2023-11-02T23:19:07.526Z,97695.56
2023-11-02T23:21:36.469Z,97691.72
2023-11-02T23:24:06.329Z,97700.97
2023-11-02T23:26:35.132Z,97709.22
2023-11-02T23:29:08.334Z,97699.19
2023-11-02T23:31:37.334Z,97689.03
2023-11-02T23:34:05.555Z,97694.00
2023-11-02T23:36:33.747Z,97689.09
2023-11-02T23:39:02.551Z,97698.19
2023-11-02T23:41:38.796Z,97700.03
2023-11-02T23:44:06.915Z,97691.19
2023-11-02T23:46:34.731Z,97685.84
2023-11-02T23:49:03.517Z,97680.88
2023-11-02T23:51:32.226Z,97679.03
2023-11-02T23:54:00.889Z,97673.19
2023-11-02T23:56:36.330Z,97664.25
2023-11-02T23:59:07.143Z,97664.63
